Time,TemperatureF,DewpointF,PressureIn,WindDirection,WindDirectionDegrees,WindSpeedMPH,WindSpeedGustMPH,Humidity,HourlyPrecipIn,Conditions,Clouds,dailyrainin,SolarRadiationWatts/m^2,SoftwareType,DateUTC
2013-05-27 00:01:00,44.0,35.0,-100.00,West,278,5.0,8.0,71,0.00,,,0.01,0.000000,,2013-05-27 06:01:00,
2013-05-27 00:11:00,44.0,35.0,-100.00,West,278,5.0,8.0,71,0.00,,,0.01,0.000000,,2013-05-27 06:11:00,
2013-05-27 00:32:00,44.0,37.0,-100.00,East,85,2.0,8.0,75,0.00,,,0.01,0.000000,,2013-05-27 06:32:00,
2013-05-27 00:42:00,44.0,37.0,-100.00,East,85,2.0,8.0,75,0.00,,,0.01,0.000000,,2013-05-27 06:42:00,
2013-05-27 00:52:00,44.0,37.0,-100.00,East,85,2.0,8.0,75,0.00,,,0.01,0.000000,,2013-05-27 06:52:00,
2013-05-27 01:02:00,44.0,37.0,-100.00,East,85,2.0,8.0,75,0.00,,,0.01,0.000000,,2013-05-27 07:02:00,
2013-05-27 01:11:00,44.0,37.0,-100.00,East,85,2.0,8.0,75,0.00,,,0.01,0.000000,,2013-05-27 07:11:00,
2013-05-27 01:32:00,48.0,39.0,-100.00,NW,307,3.0,14.0,72,0.01,,,-99.99,0.000000,,2013-05-27 07:32:00,
2013-05-27 01:42:00,48.0,39.0,-100.00,NW,307,3.0,14.0,72,0.01,,,-99.99,0.000000,,2013-05-27 07:42:00,
2013-05-27 01:52:00,48.0,39.0,-100.00,NW,307,3.0,14.0,72,0.01,,,-99.99,0.000000,,2013-05-27 07:52:00,
2013-05-27 02:02:00,48.0,39.0,-100.00,NW,307,3.0,14.0,72,0.01,,,-99.99,0.000000,,2013-05-27 08:02:00,
2013-05-27 02:11:00,48.0,39.0,-100.00,NW,307,3.0,14.0,72,0.01,,,-99.99,0.000000,,2013-05-27 08:11:00,
2013-05-27 02:33:00,47.0,37.0,-100.00,WNW,297,4.0,9.0,67,0.00,,,0.02,0.000000,,2013-05-27 08:33:00,
2013-05-27 02:42:00,47.0,37.0,-100.00,WNW,297,4.0,9.0,67,0.00,,,0.02,0.000000,,2013-05-27 08:42:00,
2013-05-27 02:52:00,47.0,37.0,-100.00,WNW,297,4.0,9.0,67,0.00,,,0.02,0.000000,,2013-05-27 08:52:00,
2013-05-27 03:02:00,47.0,37.0,-100.00,WNW,297,4.0,9.0,67,0.00,,,0.02,0.000000,,2013-05-27 09:02:00,
2013-05-27 03:11:00,47.0,37.0,-100.00,WNW,297,4.0,9.0,67,0.00,,,0.02,0.000000,,2013-05-27 09:11:00,
2013-05-27 03:33:00,42.0,36.0,-100.00,West,268,3.0,6.0,78,0.00,,,0.02,0.000000,,2013-05-27 09:33:00,
2013-05-27 03:42:00,42.0,36.0,-100.00,West,268,3.0,6.0,78,0.00,,,0.02,0.000000,,2013-05-27 09:42:00,
2013-05-27 03:53:00,42.0,36.0,-100.00,West,268,3.0,6.0,78,0.00,,,0.02,0.000000,,2013-05-27 09:53:00,
2013-05-27 04:02:00,42.0,36.0,-100.00,West,268,3.0,6.0,78,0.00,,,0.02,0.000000,,2013-05-27 10:02:00,
2013-05-27 04:12:00,42.0,36.0,-100.00,West,268,3.0,6.0,78,0.00,,,0.02,0.000000,,2013-05-27 10:12:00,
2013-05-27 04:32:00,41.0,36.0,-100.00,West,277,2.0,10.0,82,0.00,,,0.02,0.000000,,2013-05-27 10:32:00,
2013-05-27 04:42:00,41.0,36.0,-100.00,West,277,2.0,10.0,82,0.00,,,0.02,0.000000,,2013-05-27 10:42:00,
2013-05-27 04:52:00,41.0,36.0,-100.00,West,277,2.0,10.0,82,0.00,,,0.02,0.000000,,2013-05-27 10:52:00,
2013-05-27 05:02:00,41.0,36.0,-100.00,West,277,2.0,10.0,82,0.00,,,0.02,0.000000,,2013-05-27 11:02:00,
2013-05-27 05:11:00,41.0,36.0,-100.00,West,277,2.0,10.0,82,0.00,,,0.02,0.000000,,2013-05-27 11:11:00,
2013-05-27 05:32:00,39.0,35.0,-100.00,West,270,2.0,5.0,86,0.00,,,0.02,0.000000,,2013-05-27 11:32:00,
2013-05-27 05:42:00,39.0,35.0,-100.00,West,270,2.0,5.0,86,0.00,,,0.02,0.000000,,2013-05-27 11:42:00,
2013-05-27 05:52:00,39.0,35.0,-100.00,West,270,2.0,5.0,86,0.00,,,0.02,0.000000,,2013-05-27 11:52:00,
2013-05-27 06:01:00,39.0,35.0,-100.00,West,270,2.0,5.0,86,0.00,,,0.02,0.000000,,2013-05-27 12:01:00,
2013-05-27 06:11:00,39.0,35.0,-100.00,West,270,2.0,5.0,86,0.00,,,0.02,0.000000,,2013-05-27 12:11:00,
2013-05-27 06:32:00,38.0,34.0,-100.00,South,180,1.0,7.0,85,0.00,,,0.02,11.000000,,2013-05-27 12:32:00,
2013-05-27 06:42:00,38.0,34.0,-100.00,South,180,1.0,7.0,85,0.00,,,0.02,11.000000,,2013-05-27 12:42:00,
2013-05-27 06:52:00,38.0,34.0,-100.00,South,180,1.0,7.0,85,0.00,,,0.02,11.000000,,2013-05-27 12:52:00,
2013-05-27 07:01:00,38.0,34.0,-100.00,South,180,1.0,7.0,85,0.00,,,0.02,11.000000,,2013-05-27 13:01:00,
2013-05-27 07:11:00,38.0,34.0,-100.00,South,180,1.0,7.0,85,0.00,,,0.02,11.000000,,2013-05-27 13:11:00,
2013-05-27 07:42:00,42.0,36.0,-100.00,WNW,296,2.0,8.0,80,0.00,,,0.02,75.000000,,2013-05-27 13:42:00,
2013-05-27 07:52:00,42.0,36.0,-100.00,WNW,296,2.0,8.0,80,0.00,,,0.02,75.000000,,2013-05-27 13:52:00,
2013-05-27 08:01:00,42.0,36.0,-100.00,WNW,296,2.0,8.0,80,0.00,,,0.02,75.000000,,2013-05-27 14:01:00,
2013-05-27 08:11:00,42.0,36.0,-100.00,WNW,296,2.0,8.0,80,0.00,,,0.02,75.000000,,2013-05-27 14:11:00,
2013-05-27 08:42:00,53.0,34.0,-100.00,SSW,194,2.0,5.0,49,0.00,,,0.02,348.000000,,2013-05-27 14:42:00,
2013-05-27 08:52:00,53.0,34.0,-100.00,SSW,194,2.0,5.0,49,0.00,,,0.02,348.000000,,2013-05-27 14:52:00,
2013-05-27 09:11:00,53.0,34.0,-100.00,SSW,194,2.0,5.0,49,0.00,,,0.02,348.000000,,2013-05-27 15:11:00,
2013-05-27 09:33:00,56.0,27.0,-100.00,WSW,257,6.0,19.0,33,0.00,,,0.02,613.000000,,2013-05-27 15:33:00,
2013-05-27 10:33:00,45.0,32.0,-100.00,West,269,10.0,23.0,59,0.00,,,0.02,457.000000,,2013-05-27 16:33:00,
2013-05-27 10:42:00,45.0,32.0,-100.00,West,269,10.0,23.0,59,0.00,,,0.02,457.000000,,2013-05-27 16:42:00,
2013-05-27 10:52:00,45.0,32.0,-100.00,West,269,10.0,23.0,59,0.00,,,0.02,457.000000,,2013-05-27 16:52:00,
2013-05-27 11:32:00,49.0,28.0,-100.00,WNW,291,6.0,19.0,44,0.00,,,0.02,389.000000,,2013-05-27 17:32:00,
2013-05-27 12:32:00,53.0,29.0,-100.00,WSW,257,7.0,20.0,39,0.00,,,0.02,573.000000,,2013-05-27 18:32:00,
2013-05-27 12:42:00,53.0,29.0,-100.00,WSW,257,7.0,20.0,39,0.00,,,0.02,573.000000,,2013-05-27 18:42:00,
2013-05-27 12:52:00,53.0,29.0,-100.00,WSW,257,7.0,20.0,39,0.00,,,0.02,573.000000,,2013-05-27 18:52:00,
2013-05-27 13:01:00,53.0,29.0,-100.00,WSW,257,7.0,20.0,39,0.00,,,0.02,573.000000,,2013-05-27 19:01:00,
2013-05-27 13:11:00,53.0,29.0,-100.00,WSW,257,7.0,20.0,39,0.00,,,0.02,573.000000,,2013-05-27 19:11:00,
2013-05-27 13:32:00,53.0,23.0,-100.00,West,277,7.0,16.0,31,0.00,,,0.02,754.000000,,2013-05-27 19:32:00,
2013-05-27 14:32:00,55.0,24.0,-100.00,West,272,12.0,20.0,30,0.00,,,0.02,848.000000,,2013-05-27 20:32:00,
2013-05-27 15:33:00,57.0,26.0,-100.00,West,280,11.0,21.0,30,0.00,,,0.02,1116.000000,,2013-05-27 21:33:00,
2013-05-27 15:43:00,57.0,26.0,-100.00,West,280,11.0,21.0,30,0.00,,,0.02,1116.000000,,2013-05-27 21:43:00,
2013-05-27 15:53:00,57.0,26.0,-100.00,West,280,11.0,21.0,30,0.00,,,0.02,1116.000000,,2013-05-27 21:53:00,
2013-05-27 16:02:00,57.0,26.0,-100.00,West,280,11.0,21.0,30,0.00,,,0.02,1116.000000,,2013-05-27 22:02:00,
2013-05-27 16:12:00,57.0,26.0,-100.00,West,280,11.0,21.0,30,0.00,,,0.02,1116.000000,,2013-05-27 22:12:00,
2013-05-27 16:33:00,58.0,26.0,-100.00,WSW,251,6.0,17.0,29,0.00,,,0.02,984.000000,,2013-05-27 22:33:00,
2013-05-27 16:42:00,58.0,26.0,-100.00,WSW,251,6.0,17.0,29,0.00,,,0.02,984.000000,,2013-05-27 22:42:00,
2013-05-27 16:53:00,58.0,26.0,-100.00,WSW,251,6.0,17.0,29,0.00,,,0.02,984.000000,,2013-05-27 22:53:00,
2013-05-27 17:02:00,58.0,26.0,-100.00,WSW,251,6.0,17.0,29,0.00,,,0.02,984.000000,,2013-05-27 23:02:00,
2013-05-27 17:42:00,57.0,27.0,-100.00,West,278,10.0,19.0,31,0.00,,,0.02,609.000000,,2013-05-27 23:42:00,
2013-05-27 17:52:00,57.0,27.0,-100.00,West,278,10.0,19.0,31,0.00,,,0.02,609.000000,,2013-05-27 23:52:00,
2013-05-27 18:01:00,57.0,27.0,-100.00,West,278,10.0,19.0,31,0.00,,,0.02,609.000000,,2013-05-28 00:01:00,
2013-05-27 18:11:00,57.0,27.0,-100.00,West,278,10.0,19.0,31,0.00,,,0.02,609.000000,,2013-05-28 00:11:00,
2013-05-27 19:32:00,55.0,33.0,-100.00,NE,48,5.0,21.0,43,-99.99,,,0.01,431.000000,,2013-05-28 01:32:00,
2013-05-27 19:42:00,55.0,33.0,-100.00,NE,48,5.0,21.0,43,-99.99,,,0.01,431.000000,,2013-05-28 01:42:00,
2013-05-27 19:52:00,55.0,33.0,-100.00,NE,48,5.0,21.0,43,-99.99,,,0.01,431.000000,,2013-05-28 01:52:00,
2013-05-27 20:02:00,55.0,33.0,-100.00,NE,48,5.0,21.0,43,-99.99,,,0.01,431.000000,,2013-05-28 02:02:00,
2013-05-27 20:11:00,55.0,33.0,-100.00,NE,48,5.0,21.0,43,-99.99,,,0.01,431.000000,,2013-05-28 02:11:00,
2013-05-27 20:32:00,49.0,39.0,-100.00,ENE,58,2.0,15.0,67,0.00,,,0.01,80.000000,,2013-05-28 02:32:00,
2013-05-27 20:42:00,49.0,39.0,-100.00,ENE,58,2.0,15.0,67,0.00,,,0.01,80.000000,,2013-05-28 02:42:00,
2013-05-27 20:52:00,49.0,39.0,-100.00,ENE,58,2.0,15.0,67,0.00,,,0.01,80.000000,,2013-05-28 02:52:00,
2013-05-27 21:01:00,49.0,39.0,-100.00,ENE,58,2.0,15.0,67,0.00,,,0.01,80.000000,,2013-05-28 03:01:00,
2013-05-27 21:11:00,49.0,39.0,-100.00,ENE,58,2.0,15.0,67,0.00,,,0.01,80.000000,,2013-05-28 03:11:00,
2013-05-27 21:33:00,46.0,35.0,-100.00,NW,308,3.0,8.0,64,0.00,,,0.01,7.000000,,2013-05-28 03:33:00,
2013-05-27 21:43:00,46.0,35.0,-100.00,NW,308,3.0,8.0,64,0.00,,,0.01,7.000000,,2013-05-28 03:43:00,
2013-05-27 21:53:00,46.0,35.0,-100.00,NW,308,3.0,8.0,64,0.00,,,0.01,7.000000,,2013-05-28 03:53:00,
2013-05-27 22:02:00,46.0,35.0,-100.00,NW,308,3.0,8.0,64,0.00,,,0.01,7.000000,,2013-05-28 04:02:00,
2013-05-27 22:12:00,46.0,35.0,-100.00,NW,308,3.0,8.0,64,0.00,,,0.01,7.000000,,2013-05-28 04:12:00,
2013-05-27 22:33:00,43.0,35.0,-100.00,WNW,289,4.0,6.0,72,0.00,,,0.01,0.000000,,2013-05-28 04:33:00,
2013-05-27 22:43:00,43.0,35.0,-100.00,WNW,289,4.0,6.0,72,0.00,,,0.01,0.000000,,2013-05-28 04:43:00,
2013-05-27 22:52:00,43.0,35.0,-100.00,WNW,289,4.0,6.0,72,0.00,,,0.01,0.000000,,2013-05-28 04:52:00,
2013-05-27 23:02:00,43.0,35.0,-100.00,WNW,289,4.0,6.0,72,0.00,,,0.01,0.000000,,2013-05-28 05:02:00,
2013-05-27 23:12:00,43.0,35.0,-100.00,WNW,289,4.0,6.0,72,0.00,,,0.01,0.000000,,2013-05-28 05:12:00,
2013-05-27 23:33:00,42.0,34.0,-100.00,West,264,4.0,7.0,72,0.00,,,0.01,0.000000,,2013-05-28 05:33:00,
2013-05-27 23:42:00,42.0,34.0,-100.00,West,264,4.0,7.0,72,0.00,,,0.01,0.000000,,2013-05-28 05:42:00,
2013-05-27 23:52:00,42.0,34.0,-100.00,West,264,4.0,7.0,72,0.00,,,0.01,0.000000,,2013-05-28 05:52:00,